sensor_id;sensor_type;location;lat;lon;timestamp;P1;durP1;ratioP1;P2;durP2;ratioP2
41329;SDS011;34792;52.154;10.374;2022-07-09T00:01:38;1.92;;;1.02;;
41329;SDS011;34792;52.154;10.374;2022-07-09T00:04:04;3.30;;;1.50;;
41329;SDS011;34792;52.154;10.374;2022-07-09T00:06:30;2.35;;;1.40;;
41329;SDS011;34792;52.154;10.374;2022-07-09T00:08:56;1.88;;;1.42;;
41329;SDS011;34792;52.154;10.374;2022-07-09T00:11:23;1.88;;;1.20;;
41329;SDS011;34792;52.154;10.374;2022-07-09T00:13:48;1.70;;;1.02;;
41329;SDS011;34792;52.154;10.374;2022-07-09T00:16:14;1.35;;;0.73;;
41329;SDS011;34792;52.154;10.374;2022-07-09T00:18:40;1.50;;;0.85;;
41329;SDS011;34792;52.154;10.374;2022-07-09T00:21:05;2.15;;;0.98;;
41329;SDS011;34792;52.154;10.374;2022-07-09T00:23:31;1.55;;;1.00;;
41329;SDS011;34792;52.154;10.374;2022-07-09T00:25:57;1.30;;;0.88;;
41329;SDS011;34792;52.154;10.374;2022-07-09T00:28:22;1.52;;;0.85;;
41329;SDS011;34792;52.154;10.374;2022-07-09T00:30:48;2.88;;;1.40;;
41329;SDS011;34792;52.154;10.374;2022-07-09T00:33:13;1.83;;;0.70;;
41329;SDS011;34792;52.154;10.374;2022-07-09T00:35:39;2.35;;;1.30;;
41329;SDS011;34792;52.154;10.374;2022-07-09T00:38:05;1.65;;;0.90;;
41329;SDS011;34792;52.154;10.374;2022-07-09T00:40:30;1.77;;;1.13;;
41329;SDS011;34792;52.154;10.374;2022-07-09T00:42:56;2.38;;;1.23;;
41329;SDS011;34792;52.154;10.374;2022-07-09T00:45:22;2.53;;;1.23;;
41329;SDS011;34792;52.154;10.374;2022-07-09T00:47:47;3.13;;;1.23;;
41329;SDS011;34792;52.154;10.374;2022-07-09T00:50:13;1.15;;;0.80;;
41329;SDS011;34792;52.154;10.374;2022-07-09T00:52:38;1.35;;;0.95;;
41329;SDS011;34792;52.154;10.374;2022-07-09T00:55:04;1.88;;;1.25;;
41329;SDS011;34792;52.154;10.374;2022-07-09T00:57:31;2.25;;;1.25;;
41329;SDS011;34792;52.154;10.374;2022-07-09T00:59:58;1.08;;;0.70;;
41329;SDS011;34792;52.154;10.374;2022-07-09T01:02:24;3.45;;;0.98;;
41329;SDS011;34792;52.154;10.374;2022-07-09T01:04:50;1.25;;;0.77;;
41329;SDS011;34792;52.154;10.374;2022-07-09T01:07:16;1.55;;;1.00;;
41329;SDS011;34792;52.154;10.374;2022-07-09T01:09:41;2.40;;;0.80;;
41329;SDS011;34792;52.154;10.374;2022-07-09T01:12:07;1.20;;;0.68;;
41329;SDS011;34792;52.154;10.374;2022-07-09T01:14:33;1.70;;;1.02;;
41329;SDS011;34792;52.154;10.374;2022-07-09T01:17:00;1.10;;;0.63;;
41329;SDS011;34792;52.154;10.374;2022-07-09T01:19:27;2.80;;;1.10;;
41329;SDS011;34792;52.154;10.374;2022-07-09T01:21:53;1.88;;;1.33;;
41329;SDS011;34792;52.154;10.374;2022-07-09T01:24:19;2.22;;;0.70;;
41329;SDS011;34792;52.154;10.374;2022-07-09T01:26:45;1.25;;;0.75;;
41329;SDS011;34792;52.154;10.374;2022-07-09T01:29:11;1.80;;;0.93;;
41329;SDS011;34792;52.154;10.374;2022-07-09T01:31:36;1.27;;;0.85;;
41329;SDS011;34792;52.154;10.374;2022-07-09T01:34:02;1.67;;;0.80;;
41329;SDS011;34792;52.154;10.374;2022-07-09T01:36:27;1.35;;;0.75;;
41329;SDS011;34792;52.154;10.374;2022-07-09T01:38:53;1.27;;;0.93;;
41329;SDS011;34792;52.154;10.374;2022-07-09T01:41:18;2.78;;;0.90;;
41329;SDS011;34792;52.154;10.374;2022-07-09T01:43:44;1.60;;;0.70;;
41329;SDS011;34792;52.154;10.374;2022-07-09T01:46:10;1.65;;;0.93;;
41329;SDS011;34792;52.154;10.374;2022-07-09T01:48:35;1.77;;;0.88;;
41329;SDS011;34792;52.154;10.374;2022-07-09T01:51:01;1.73;;;0.80;;
41329;SDS011;34792;52.154;10.374;2022-07-09T01:53:27;1.90;;;0.80;;
41329;SDS011;34792;52.154;10.374;2022-07-09T01:55:53;1.83;;;0.88;;
41329;SDS011;34792;52.154;10.374;2022-07-09T01:58:18;2.65;;;1.00;;
41329;SDS011;34792;52.154;10.374;2022-07-09T02:00:44;4.25;;;1.40;;
41329;SDS011;34792;52.154;10.374;2022-07-09T02:03:10;1.52;;;0.80;;
41329;SDS011;34792;52.154;10.374;2022-07-09T02:05:35;0.95;;;0.60;;
41329;SDS011;34792;52.154;10.374;2022-07-09T02:08:02;1.95;;;1.00;;
41329;SDS011;34792;52.154;10.374;2022-07-09T02:10:28;1.92;;;1.10;;
41329;SDS011;34792;52.154;10.374;2022-07-09T02:12:55;1.30;;;0.80;;
41329;SDS011;34792;52.154;10.374;2022-07-09T02:15:20;1.98;;;0.90;;
41329;SDS011;34792;52.154;10.374;2022-07-09T02:17:47;1.20;;;0.80;;
41329;SDS011;34792;52.154;10.374;2022-07-09T02:20:12;1.52;;;0.82;;
41329;SDS011;34792;52.154;10.374;2022-07-09T02:22:38;1.50;;;0.85;;
41329;SDS011;34792;52.154;10.374;2022-07-09T02:25:04;1.38;;;0.73;;
41329;SDS011;34792;52.154;10.374;2022-07-09T02:27:30;1.60;;;0.68;;
41329;SDS011;34792;52.154;10.374;2022-07-09T02:29:56;3.67;;;1.20;;
41329;SDS011;34792;52.154;10.374;2022-07-09T02:32:21;2.42;;;1.33;;
41329;SDS011;34792;52.154;10.374;2022-07-09T02:34:47;1.45;;;0.95;;
41329;SDS011;34792;52.154;10.374;2022-07-09T02:37:13;1.38;;;0.90;;
41329;SDS011;34792;52.154;10.374;2022-07-09T02:39:38;1.90;;;0.85;;
41329;SDS011;34792;52.154;10.374;2022-07-09T02:42:04;1.13;;;0.70;;
41329;SDS011;34792;52.154;10.374;2022-07-09T02:44:30;1.70;;;1.08;;
41329;SDS011;34792;52.154;10.374;2022-07-09T02:46:55;1.05;;;0.75;;
41329;SDS011;34792;52.154;10.374;2022-07-09T02:49:21;1.70;;;1.10;;
41329;SDS011;34792;52.154;10.374;2022-07-09T02:51:48;1.92;;;1.27;;
41329;SDS011;34792;52.154;10.374;2022-07-09T02:54:14;1.40;;;0.77;;
41329;SDS011;34792;52.154;10.374;2022-07-09T02:56:39;3.15;;;1.08;;
41329;SDS011;34792;52.154;10.374;2022-07-09T02:59:05;2.00;;;0.70;;
41329;SDS011;34792;52.154;10.374;2022-07-09T03:01:30;1.40;;;0.90;;
41329;SDS011;34792;52.154;10.374;2022-07-09T03:03:56;1.88;;;0.80;;
41329;SDS011;34792;52.154;10.374;2022-07-09T03:06:21;3.35;;;1.05;;
41329;SDS011;34792;52.154;10.374;2022-07-09T03:08:47;1.40;;;0.70;;
41329;SDS011;34792;52.154;10.374;2022-07-09T03:11:13;1.38;;;1.05;;
41329;SDS011;34792;52.154;10.374;2022-07-09T03:13:39;1.23;;;0.82;;
41329;SDS011;34792;52.154;10.374;2022-07-09T03:16:04;2.10;;;0.98;;
41329;SDS011;34792;52.154;10.374;2022-07-09T03:18:31;2.03;;;1.45;;
41329;SDS011;34792;52.154;10.374;2022-07-09T03:20:58;1.13;;;0.55;;
41329;SDS011;34792;52.154;10.374;2022-07-09T03:23:23;1.48;;;0.70;;
41329;SDS011;34792;52.154;10.374;2022-07-09T03:25:49;0.95;;;0.55;;
41329;SDS011;34792;52.154;10.374;2022-07-09T03:28:15;2.40;;;1.10;;
41329;SDS011;34792;52.154;10.374;2022-07-09T03:30:40;1.63;;;0.70;;
41329;SDS011;34792;52.154;10.374;2022-07-09T03:33:06;1.02;;;0.70;;
41329;SDS011;34792;52.154;10.374;2022-07-09T03:35:32;2.45;;;0.80;;
41329;SDS011;34792;52.154;10.374;2022-07-09T03:37:57;1.33;;;0.70;;
41329;SDS011;34792;52.154;10.374;2022-07-09T03:40:23;1.50;;;0.82;;
41329;SDS011;34792;52.154;10.374;2022-07-09T03:42:48;1.38;;;0.93;;
41329;SDS011;34792;52.154;10.374;2022-07-09T03:45:14;1.88;;;0.85;;
41329;SDS011;34792;52.154;10.374;2022-07-09T03:47:40;2.42;;;1.08;;
41329;SDS011;34792;52.154;10.374;2022-07-09T03:50:06;1.67;;;0.90;;
41329;SDS011;34792;52.154;10.374;2022-07-09T03:52:32;1.15;;;0.63;;
41329;SDS011;34792;52.154;10.374;2022-07-09T03:54:58;1.73;;;0.70;;
41329;SDS011;34792;52.154;10.374;2022-07-09T03:57:23;1.40;;;0.77;;
41329;SDS011;34792;52.154;10.374;2022-07-09T03:59:49;1.23;;;0.55;;
41329;SDS011;34792;52.154;10.374;2022-07-09T04:02:14;0.55;;;0.35;;
41329;SDS011;34792;52.154;10.374;2022-07-09T04:04:40;0.82;;;0.55;;
41329;SDS011;34792;52.154;10.374;2022-07-09T04:07:06;3.17;;;0.88;;
41329;SDS011;34792;52.154;10.374;2022-07-09T04:09:31;1.52;;;0.88;;
41329;SDS011;34792;52.154;10.374;2022-07-09T04:11:57;1.75;;;0.80;;
41329;SDS011;34792;52.154;10.374;2022-07-09T04:14:22;2.97;;;0.90;;
41329;SDS011;34792;52.154;10.374;2022-07-09T04:16:48;0.85;;;0.50;;
41329;SDS011;34792;52.154;10.374;2022-07-09T04:19:14;1.65;;;0.68;;
41329;SDS011;34792;52.154;10.374;2022-07-09T04:21:39;0.85;;;0.63;;
41329;SDS011;34792;52.154;10.374;2022-07-09T04:24:05;1.50;;;0.88;;
41329;SDS011;34792;52.154;10.374;2022-07-09T04:26:30;2.42;;;1.08;;
41329;SDS011;34792;52.154;10.374;2022-07-09T04:28:56;0.95;;;0.60;;
41329;SDS011;34792;52.154;10.374;2022-07-09T04:31:21;1.02;;;0.60;;
41329;SDS011;34792;52.154;10.374;2022-07-09T04:33:47;1.90;;;0.55;;
41329;SDS011;34792;52.154;10.374;2022-07-09T04:36:13;0.70;;;0.45;;
41329;SDS011;34792;52.154;10.374;2022-07-09T04:38:39;1.13;;;0.70;;
41329;SDS011;34792;52.154;10.374;2022-07-09T04:41:04;1.50;;;0.82;;
41329;SDS011;34792;52.154;10.374;2022-07-09T04:43:30;1.33;;;0.85;;
41329;SDS011;34792;52.154;10.374;2022-07-09T04:45:56;2.40;;;0.93;;
41329;SDS011;34792;52.154;10.374;2022-07-09T04:48:22;1.40;;;0.70;;
41329;SDS011;34792;52.154;10.374;2022-07-09T04:50:48;1.45;;;0.52;;
41329;SDS011;34792;52.154;10.374;2022-07-09T04:53:13;2.42;;;0.93;;
41329;SDS011;34792;52.154;10.374;2022-07-09T04:55:39;1.35;;;0.88;;
41329;SDS011;34792;52.154;10.374;2022-07-09T04:58:04;1.27;;;0.68;;
41329;SDS011;34792;52.154;10.374;2022-07-09T05:00:30;1.23;;;0.82;;
41329;SDS011;34792;52.154;10.374;2022-07-09T05:02:58;1.67;;;0.95;;
41329;SDS011;34792;52.154;10.374;2022-07-09T05:05:23;1.40;;;0.63;;
41329;SDS011;34792;52.154;10.374;2022-07-09T05:07:50;0.98;;;0.73;;
41329;SDS011;34792;52.154;10.374;2022-07-09T05:10:16;0.77;;;0.47;;
41329;SDS011;34792;52.154;10.374;2022-07-09T05:12:42;2.10;;;0.95;;
41329;SDS011;34792;52.154;10.374;2022-07-09T05:15:08;1.45;;;0.60;;
41329;SDS011;34792;52.154;10.374;2022-07-09T05:17:35;1.20;;;0.70;;
41329;SDS011;34792;52.154;10.374;2022-07-09T05:20:02;1.13;;;0.70;;
41329;SDS011;34792;52.154;10.374;2022-07-09T05:22:30;0.88;;;0.60;;
41329;SDS011;34792;52.154;10.374;2022-07-09T05:24:56;1.27;;;0.73;;
41329;SDS011;34792;52.154;10.374;2022-07-09T05:27:21;1.85;;;0.80;;
41329;SDS011;34792;52.154;10.374;2022-07-09T05:29:48;0.82;;;0.50;;
41329;SDS011;34792;52.154;10.374;2022-07-09T05:32:13;1.00;;;0.45;;
41329;SDS011;34792;52.154;10.374;2022-07-09T05:34:39;1.50;;;0.88;;
41329;SDS011;34792;52.154;10.374;2022-07-09T05:37:05;1.33;;;0.90;;
41329;SDS011;34792;52.154;10.374;2022-07-09T05:39:30;1.85;;;1.00;;
41329;SDS011;34792;52.154;10.374;2022-07-09T05:41:56;1.05;;;0.70;;
41329;SDS011;34792;52.154;10.374;2022-07-09T05:44:22;2.35;;;0.68;;
41329;SDS011;34792;52.154;10.374;2022-07-09T05:46:47;1.00;;;0.73;;
41329;SDS011;34792;52.154;10.374;2022-07-09T05:49:13;1.25;;;0.80;;
41329;SDS011;34792;52.154;10.374;2022-07-09T05:51:38;1.30;;;0.52;;
41329;SDS011;34792;52.154;10.374;2022-07-09T05:54:04;1.55;;;0.80;;
41329;SDS011;34792;52.154;10.374;2022-07-09T05:56:30;0.77;;;0.50;;
41329;SDS011;34792;52.154;10.374;2022-07-09T05:58:55;1.45;;;0.90;;
41329;SDS011;34792;52.154;10.374;2022-07-09T06:01:21;1.85;;;0.80;;
41329;SDS011;34792;52.154;10.374;2022-07-09T06:03:46;1.60;;;0.80;;
41329;SDS011;34792;52.154;10.374;2022-07-09T06:06:12;1.77;;;1.17;;
41329;SDS011;34792;52.154;10.374;2022-07-09T06:08:38;1.63;;;0.73;;
41329;SDS011;34792;52.154;10.374;2022-07-09T06:11:04;1.15;;;0.70;;
41329;SDS011;34792;52.154;10.374;2022-07-09T06:13:30;1.63;;;0.80;;
41329;SDS011;34792;52.154;10.374;2022-07-09T06:15:55;1.77;;;0.68;;
41329;SDS011;34792;52.154;10.374;2022-07-09T06:18:21;0.80;;;0.35;;
41329;SDS011;34792;52.154;10.374;2022-07-09T06:20:49;0.77;;;0.52;;
41329;SDS011;34792;52.154;10.374;2022-07-09T06:23:15;0.95;;;0.57;;
41329;SDS011;34792;52.154;10.374;2022-07-09T06:25:40;0.85;;;0.55;;
41329;SDS011;34792;52.154;10.374;2022-07-09T06:28:06;1.13;;;0.50;;
41329;SDS011;34792;52.154;10.374;2022-07-09T06:30:32;1.10;;;0.70;;
41329;SDS011;34792;52.154;10.374;2022-07-09T06:33:00;2.42;;;0.80;;
41329;SDS011;34792;52.154;10.374;2022-07-09T06:35:26;1.48;;;0.60;;
41329;SDS011;34792;52.154;10.374;2022-07-09T06:37:52;1.20;;;0.63;;
41329;SDS011;34792;52.154;10.374;2022-07-09T06:40:17;1.40;;;0.98;;
41329;SDS011;34792;52.154;10.374;2022-07-09T06:42:43;1.08;;;0.70;;
41329;SDS011;34792;52.154;10.374;2022-07-09T06:45:09;1.15;;;0.68;;
41329;SDS011;34792;52.154;10.374;2022-07-09T06:47:35;1.35;;;0.85;;
41329;SDS011;34792;52.154;10.374;2022-07-09T06:50:01;1.13;;;0.80;;
41329;SDS011;34792;52.154;10.374;2022-07-09T06:52:26;1.10;;;0.60;;
41329;SDS011;34792;52.154;10.374;2022-07-09T06:54:52;0.70;;;0.50;;
41329;SDS011;34792;52.154;10.374;2022-07-09T06:57:18;1.83;;;0.98;;
41329;SDS011;34792;52.154;10.374;2022-07-09T06:59:44;1.27;;;1.00;;
41329;SDS011;34792;52.154;10.374;2022-07-09T07:02:13;1.38;;;0.77;;
41329;SDS011;34792;52.154;10.374;2022-07-09T07:04:41;1.48;;;0.60;;
41329;SDS011;34792;52.154;10.374;2022-07-09T07:07:06;0.95;;;0.60;;
41329;SDS011;34792;52.154;10.374;2022-07-09T07:09:32;1.05;;;0.70;;
41329;SDS011;34792;52.154;10.374;2022-07-09T07:11:58;0.85;;;0.63;;
41329;SDS011;34792;52.154;10.374;2022-07-09T07:14:23;0.80;;;0.68;;
41329;SDS011;34792;52.154;10.374;2022-07-09T07:16:49;1.05;;;0.60;;
41329;SDS011;34792;52.154;10.374;2022-07-09T07:19:15;0.88;;;0.47;;
41329;SDS011;34792;52.154;10.374;2022-07-09T07:21:42;1.75;;;0.73;;
41329;SDS011;34792;52.154;10.374;2022-07-09T07:24:07;1.42;;;0.80;;
41329;SDS011;34792;52.154;10.374;2022-07-09T07:26:34;2.30;;;1.00;;
41329;SDS011;34792;52.154;10.374;2022-07-09T07:28:59;0.98;;;0.60;;
41329;SDS011;34792;52.154;10.374;2022-07-09T07:31:25;1.00;;;0.57;;
41329;SDS011;34792;52.154;10.374;2022-07-09T07:33:51;0.82;;;0.40;;
41329;SDS011;34792;52.154;10.374;2022-07-09T07:36:17;0.90;;;0.68;;
41329;SDS011;34792;52.154;10.374;2022-07-09T07:38:43;1.08;;;0.50;;
41329;SDS011;34792;52.154;10.374;2022-07-09T07:41:10;1.23;;;0.77;;
41329;SDS011;34792;52.154;10.374;2022-07-09T07:43:36;0.90;;;0.50;;
41329;SDS011;34792;52.154;10.374;2022-07-09T07:46:02;0.60;;;0.30;;
41329;SDS011;34792;52.154;10.374;2022-07-09T07:48:27;1.42;;;0.85;;
41329;SDS011;34792;52.154;10.374;2022-07-09T07:50:56;1.52;;;0.63;;
41329;SDS011;34792;52.154;10.374;2022-07-09T07:53:22;0.82;;;0.45;;
41329;SDS011;34792;52.154;10.374;2022-07-09T07:55:48;6.63;;;2.50;;
41329;SDS011;34792;52.154;10.374;2022-07-09T07:58:14;5.63;;;3.60;;
41329;SDS011;34792;52.154;10.374;2022-07-09T08:00:40;8.02;;;3.30;;
41329;SDS011;34792;52.154;10.374;2022-07-09T08:03:05;14.02;;;5.03;;
41329;SDS011;34792;52.154;10.374;2022-07-09T08:05:31;13.63;;;3.70;;
41329;SDS011;34792;52.154;10.374;2022-07-09T08:07:57;7.28;;;3.40;;
41329;SDS011;34792;52.154;10.374;2022-07-09T08:10:23;5.80;;;3.38;;
41329;SDS011;34792;52.154;10.374;2022-07-09T08:12:49;6.70;;;3.90;;
41329;SDS011;34792;52.154;10.374;2022-07-09T08:15:14;5.95;;;3.25;;
41329;SDS011;34792;52.154;10.374;2022-07-09T08:17:40;9.75;;;2.95;;
41329;SDS011;34792;52.154;10.374;2022-07-09T08:20:06;3.42;;;2.95;;
41329;SDS011;34792;52.154;10.374;2022-07-09T08:22:32;6.20;;;2.53;;
41329;SDS011;34792;52.154;10.374;2022-07-09T08:24:57;5.72;;;3.30;;
41329;SDS011;34792;52.154;10.374;2022-07-09T08:27:23;6.88;;;3.03;;
41329;SDS011;34792;52.154;10.374;2022-07-09T08:29:49;6.50;;;2.50;;
41329;SDS011;34792;52.154;10.374;2022-07-09T08:32:14;3.92;;;2.65;;
41329;SDS011;34792;52.154;10.374;2022-07-09T08:34:40;3.25;;;1.85;;
41329;SDS011;34792;52.154;10.374;2022-07-09T08:37:06;9.55;;;2.35;;
41329;SDS011;34792;52.154;10.374;2022-07-09T08:39:32;3.60;;;2.33;;
41329;SDS011;34792;52.154;10.374;2022-07-09T08:41:58;4.80;;;2.75;;
41329;SDS011;34792;52.154;10.374;2022-07-09T08:44:26;4.90;;;2.05;;
41329;SDS011;34792;52.154;10.374;2022-07-09T08:46:54;2.60;;;1.80;;
41329;SDS011;34792;52.154;10.374;2022-07-09T08:49:25;3.05;;;1.98;;
41329;SDS011;34792;52.154;10.374;2022-07-09T08:51:53;6.25;;;2.13;;
41329;SDS011;34792;52.154;10.374;2022-07-09T08:54:21;4.13;;;1.85;;
41329;SDS011;34792;52.154;10.374;2022-07-09T08:56:47;2.97;;;2.10;;
41329;SDS011;34792;52.154;10.374;2022-07-09T08:59:14;10.82;;;1.98;;
41329;SDS011;34792;52.154;10.374;2022-07-09T09:01:40;4.13;;;2.33;;
41329;SDS011;34792;52.154;10.374;2022-07-09T09:04:05;2.60;;;1.83;;
41329;SDS011;34792;52.154;10.374;2022-07-09T09:06:35;4.47;;;2.15;;
41329;SDS011;34792;52.154;10.374;2022-07-09T09:09:02;3.47;;;2.13;;
41329;SDS011;34792;52.154;10.374;2022-07-09T09:11:27;5.13;;;1.75;;
41329;SDS011;34792;52.154;10.374;2022-07-09T09:13:53;2.85;;;1.85;;
41329;SDS011;34792;52.154;10.374;2022-07-09T09:16:19;4.78;;;2.08;;
41329;SDS011;34792;52.154;10.374;2022-07-09T09:18:47;2.80;;;1.88;;
41329;SDS011;34792;52.154;10.374;2022-07-09T09:21:14;3.13;;;1.50;;
41329;SDS011;34792;52.154;10.374;2022-07-09T09:23:45;6.43;;;2.40;;
41329;SDS011;34792;52.154;10.374;2022-07-09T09:26:15;2.28;;;1.30;;
41329;SDS011;34792;52.154;10.374;2022-07-09T09:28:46;3.00;;;1.75;;
41329;SDS011;34792;52.154;10.374;2022-07-09T09:31:29;4.72;;;1.73;;
41329;SDS011;34792;52.154;10.374;2022-07-09T09:34:12;3.92;;;1.83;;
41329;SDS011;34792;52.154;10.374;2022-07-09T09:36:40;5.60;;;1.90;;
41329;SDS011;34792;52.154;10.374;2022-07-09T09:41:36;3.10;;;1.92;;
41329;SDS011;34792;52.154;10.374;2022-07-09T09:44:05;4.22;;;2.65;;
41329;SDS011;34792;52.154;10.374;2022-07-09T09:46:34;5.00;;;1.50;;
41329;SDS011;34792;52.154;10.374;2022-07-09T09:49:02;4.53;;;1.92;;
41329;SDS011;34792;52.154;10.374;2022-07-09T09:51:31;3.75;;;1.45;;
41329;SDS011;34792;52.154;10.374;2022-07-09T09:54:01;2.53;;;1.70;;
41329;SDS011;34792;52.154;10.374;2022-07-09T09:56:27;6.13;;;2.00;;
41329;SDS011;34792;52.154;10.374;2022-07-09T09:58:53;6.32;;;1.63;;
41329;SDS011;34792;52.154;10.374;2022-07-09T10:01:20;2.90;;;1.77;;
41329;SDS011;34792;52.154;10.374;2022-07-09T10:03:45;4.38;;;1.58;;
41329;SDS011;34792;52.154;10.374;2022-07-09T10:06:11;2.60;;;1.58;;
41329;SDS011;34792;52.154;10.374;2022-07-09T10:08:36;3.30;;;1.67;;
41329;SDS011;34792;52.154;10.374;2022-07-09T10:11:02;6.05;;;2.58;;
41329;SDS011;34792;52.154;10.374;2022-07-09T10:13:29;5.82;;;1.63;;
41329;SDS011;34792;52.154;10.374;2022-07-09T10:15:55;3.03;;;1.98;;
41329;SDS011;34792;52.154;10.374;2022-07-09T10:18:20;2.38;;;1.90;;
41329;SDS011;34792;52.154;10.374;2022-07-09T10:20:46;2.90;;;1.98;;
41329;SDS011;34792;52.154;10.374;2022-07-09T10:23:24;4.43;;;1.67;;
41329;SDS011;34792;52.154;10.374;2022-07-09T10:25:50;6.00;;;2.67;;
41329;SDS011;34792;52.154;10.374;2022-07-09T10:28:22;5.18;;;2.25;;
41329;SDS011;34792;52.154;10.374;2022-07-09T10:30:51;5.15;;;2.17;;
41329;SDS011;34792;52.154;10.374;2022-07-09T10:33:23;2.78;;;1.70;;
41329;SDS011;34792;52.154;10.374;2022-07-09T10:35:52;5.22;;;2.35;;
41329;SDS011;34792;52.154;10.374;2022-07-09T10:38:19;5.25;;;2.20;;
41329;SDS011;34792;52.154;10.374;2022-07-09T10:40:58;6.45;;;2.53;;
41329;SDS011;34792;52.154;10.374;2022-07-09T10:43:40;4.18;;;2.22;;
41329;SDS011;34792;52.154;10.374;2022-07-09T10:46:15;2.72;;;1.75;;
41329;SDS011;34792;52.154;10.374;2022-07-09T10:48:41;3.70;;;1.92;;
41329;SDS011;34792;52.154;10.374;2022-07-09T10:51:07;2.58;;;1.73;;
41329;SDS011;34792;52.154;10.374;2022-07-09T10:53:33;4.10;;;2.08;;
41329;SDS011;34792;52.154;10.374;2022-07-09T10:55:58;9.15;;;2.20;;
41329;SDS011;34792;52.154;10.374;2022-07-09T10:58:24;2.75;;;1.63;;
41329;SDS011;34792;52.154;10.374;2022-07-09T11:00:54;4.35;;;2.17;;
41329;SDS011;34792;52.154;10.374;2022-07-09T11:03:25;8.65;;;2.45;;
41329;SDS011;34792;52.154;10.374;2022-07-09T11:05:51;4.75;;;1.98;;
41329;SDS011;34792;52.154;10.374;2022-07-09T11:08:17;5.75;;;2.08;;
41329;SDS011;34792;52.154;10.374;2022-07-09T11:10:43;3.58;;;1.80;;
41329;SDS011;34792;52.154;10.374;2022-07-09T11:13:08;4.15;;;2.47;;
41329;SDS011;34792;52.154;10.374;2022-07-09T11:15:35;5.90;;;1.55;;
41329;SDS011;34792;52.154;10.374;2022-07-09T11:18:02;4.55;;;2.17;;
41329;SDS011;34792;52.154;10.374;2022-07-09T11:20:30;2.65;;;1.83;;
41329;SDS011;34792;52.154;10.374;2022-07-09T11:22:57;5.68;;;1.90;;
41329;SDS011;34792;52.154;10.374;2022-07-09T11:25:25;4.47;;;2.05;;
41329;SDS011;34792;52.154;10.374;2022-07-09T11:27:52;6.82;;;2.25;;
41329;SDS011;34792;52.154;10.374;2022-07-09T11:30:19;3.05;;;1.60;;
41329;SDS011;34792;52.154;10.374;2022-07-09T11:32:45;3.80;;;2.20;;
41329;SDS011;34792;52.154;10.374;2022-07-09T11:35:11;4.05;;;2.25;;
41329;SDS011;34792;52.154;10.374;2022-07-09T11:37:37;2.40;;;1.65;;
41329;SDS011;34792;52.154;10.374;2022-07-09T11:40:03;2.75;;;2.00;;
41329;SDS011;34792;52.154;10.374;2022-07-09T11:42:29;2.78;;;1.73;;
41329;SDS011;34792;52.154;10.374;2022-07-09T11:44:55;2.40;;;1.60;;
41329;SDS011;34792;52.154;10.374;2022-07-09T11:47:34;4.35;;;2.08;;
41329;SDS011;34792;52.154;10.374;2022-07-09T11:50:08;4.07;;;2.05;;
41329;SDS011;34792;52.154;10.374;2022-07-09T11:52:33;3.33;;;1.33;;
41329;SDS011;34792;52.154;10.374;2022-07-09T11:55:00;5.38;;;2.25;;
41329;SDS011;34792;52.154;10.374;2022-07-09T11:57:28;2.60;;;1.92;;
41329;SDS011;34792;52.154;10.374;2022-07-09T11:59:55;2.85;;;1.95;;
41329;SDS011;34792;52.154;10.374;2022-07-09T12:04:50;4.82;;;2.20;;
41329;SDS011;34792;52.154;10.374;2022-07-09T12:07:15;3.03;;;1.85;;
41329;SDS011;34792;52.154;10.374;2022-07-09T12:09:41;4.45;;;1.70;;
41329;SDS011;34792;52.154;10.374;2022-07-09T12:12:07;3.90;;;2.13;;
41329;SDS011;34792;52.154;10.374;2022-07-09T12:14:32;17.23;;;1.80;;
41329;SDS011;34792;52.154;10.374;2022-07-09T12:16:58;3.00;;;1.67;;
41329;SDS011;34792;52.154;10.374;2022-07-09T12:19:24;3.03;;;1.95;;
41329;SDS011;34792;52.154;10.374;2022-07-09T12:21:49;3.80;;;1.95;;
41329;SDS011;34792;52.154;10.374;2022-07-09T12:24:15;4.53;;;2.42;;
41329;SDS011;34792;52.154;10.374;2022-07-09T12:26:41;8.13;;;2.10;;
41329;SDS011;34792;52.154;10.374;2022-07-09T12:29:06;2.78;;;1.77;;
41329;SDS011;34792;52.154;10.374;2022-07-09T12:31:32;3.35;;;1.75;;
41329;SDS011;34792;52.154;10.374;2022-07-09T12:34:01;3.45;;;1.83;;
41329;SDS011;34792;52.154;10.374;2022-07-09T12:36:27;4.97;;;2.00;;
41329;SDS011;34792;52.154;10.374;2022-07-09T12:38:52;3.13;;;2.20;;
41329;SDS011;34792;52.154;10.374;2022-07-09T12:41:18;2.97;;;1.63;;
41329;SDS011;34792;52.154;10.374;2022-07-09T12:43:43;2.50;;;1.48;;
41329;SDS011;34792;52.154;10.374;2022-07-09T12:46:09;2.80;;;1.70;;
41329;SDS011;34792;52.154;10.374;2022-07-09T12:48:35;3.00;;;1.65;;
41329;SDS011;34792;52.154;10.374;2022-07-09T12:51:00;2.38;;;1.30;;
41329;SDS011;34792;52.154;10.374;2022-07-09T12:53:26;4.70;;;1.95;;
41329;SDS011;34792;52.154;10.374;2022-07-09T12:55:51;3.60;;;1.67;;
41329;SDS011;34792;52.154;10.374;2022-07-09T12:58:17;4.85;;;1.95;;
41329;SDS011;34792;52.154;10.374;2022-07-09T13:00:42;2.72;;;1.33;;
41329;SDS011;34792;52.154;10.374;2022-07-09T13:03:08;3.90;;;1.42;;
41329;SDS011;34792;52.154;10.374;2022-07-09T13:05:34;1.95;;;1.20;;
41329;SDS011;34792;52.154;10.374;2022-07-09T13:07:59;2.75;;;1.52;;
41329;SDS011;34792;52.154;10.374;2022-07-09T13:10:25;2.40;;;1.58;;
41329;SDS011;34792;52.154;10.374;2022-07-09T13:12:50;4.53;;;1.70;;
41329;SDS011;34792;52.154;10.374;2022-07-09T13:15:16;6.72;;;1.65;;
41329;SDS011;34792;52.154;10.374;2022-07-09T13:17:49;8.85;;;2.35;;
41329;SDS011;34792;52.154;10.374;2022-07-09T13:20:14;2.67;;;1.60;;
41329;SDS011;34792;52.154;10.374;2022-07-09T13:22:40;4.50;;;1.73;;
41329;SDS011;34792;52.154;10.374;2022-07-09T13:25:06;6.93;;;2.40;;
41329;SDS011;34792;52.154;10.374;2022-07-09T13:27:32;3.40;;;1.88;;
41329;SDS011;34792;52.154;10.374;2022-07-09T13:29:58;8.73;;;1.98;;
41329;SDS011;34792;52.154;10.374;2022-07-09T13:32:23;5.00;;;1.88;;
41329;SDS011;34792;52.154;10.374;2022-07-09T13:34:49;7.38;;;1.98;;
41329;SDS011;34792;52.154;10.374;2022-07-09T13:37:15;4.65;;;2.00;;
41329;SDS011;34792;52.154;10.374;2022-07-09T13:39:41;8.23;;;1.88;;
41329;SDS011;34792;52.154;10.374;2022-07-09T13:42:07;5.93;;;1.85;;
41329;SDS011;34792;52.154;10.374;2022-07-09T13:44:33;3.08;;;1.58;;
41329;SDS011;34792;52.154;10.374;2022-07-09T13:47:08;4.55;;;1.88;;
41329;SDS011;34792;52.154;10.374;2022-07-09T13:49:34;3.92;;;1.70;;
41329;SDS011;34792;52.154;10.374;2022-07-09T13:51:59;3.22;;;1.50;;
41329;SDS011;34792;52.154;10.374;2022-07-09T13:54:26;8.20;;;1.95;;
41329;SDS011;34792;52.154;10.374;2022-07-09T13:56:52;5.18;;;2.17;;
41329;SDS011;34792;52.154;10.374;2022-07-09T13:59:17;5.45;;;1.60;;
41329;SDS011;34792;52.154;10.374;2022-07-09T14:01:43;4.82;;;2.58;;
41329;SDS011;34792;52.154;10.374;2022-07-09T14:04:09;2.33;;;1.38;;
41329;SDS011;34792;52.154;10.374;2022-07-09T14:06:34;3.88;;;1.23;;
41329;SDS011;34792;52.154;10.374;2022-07-09T14:09:01;4.22;;;1.63;;
41329;SDS011;34792;52.154;10.374;2022-07-09T14:11:28;3.28;;;1.63;;
41329;SDS011;34792;52.154;10.374;2022-07-09T14:13:53;2.00;;;1.20;;
41329;SDS011;34792;52.154;10.374;2022-07-09T14:16:20;5.93;;;2.05;;
41329;SDS011;34792;52.154;10.374;2022-07-09T14:18:45;2.72;;;1.38;;
41329;SDS011;34792;52.154;10.374;2022-07-09T14:21:11;3.65;;;1.73;;
41329;SDS011;34792;52.154;10.374;2022-07-09T14:23:37;2.05;;;1.40;;
41329;SDS011;34792;52.154;10.374;2022-07-09T14:26:02;2.78;;;1.13;;
41329;SDS011;34792;52.154;10.374;2022-07-09T14:28:28;5.15;;;1.80;;
41329;SDS011;34792;52.154;10.374;2022-07-09T14:30:54;2.67;;;1.40;;
41329;SDS011;34792;52.154;10.374;2022-07-09T14:33:19;2.60;;;1.88;;